createdAt,value
2023-07-24T00:00:09.400Z,95333.13
2023-07-24T00:02:37.566Z,95327.13
2023-07-24T00:05:06.508Z,95326.38
2023-07-24T00:07:34.840Z,95318.59
2023-07-24T00:10:03.212Z,95327.84
2023-07-24T00:12:31.217Z,95321.59
2023-07-24T00:14:59.416Z,95308.91
2023-07-24T00:17:29.383Z,95321.88
2023-07-24T00:19:58.193Z,95326.88
2023-07-24T00:22:26.252Z,95325.16
2023-07-24T00:24:54.420Z,95319.63
2023-07-24T00:27:22.573Z,95323.69
2023-07-24T00:29:51.759Z,95310.97
2023-07-24T00:32:20.052Z,95330.19
2023-07-24T00:34:49.647Z,95332.50
2023-07-24T00:37:18.307Z,95324.47
2023-07-24T00:39:46.704Z,95324.25
2023-07-24T00:42:16.255Z,95320.94
2023-07-24T00:44:44.265Z,95315.72
2023-07-24T00:47:12.855Z,95308.75
2023-07-24T00:49:41.437Z,95317.47
2023-07-24T00:52:11.571Z,95313.47
2023-07-24T00:54:40.643Z,95313.97
2023-07-24T00:57:09.151Z,95314.97
2023-07-24T00:59:38.252Z,95318.16
2023-07-24T01:02:07.141Z,95308.81
2023-07-24T01:04:35.726Z,95309.06
2023-07-24T01:07:07.010Z,95306.06
2023-07-24T01:09:36.579Z,95313.81
2023-07-24T01:12:12.772Z,95315.59
2023-07-24T01:14:48.380Z,95311.88
2023-07-24T01:17:18.885Z,95308.72
2023-07-24T01:19:51.166Z,95315.25
2023-07-24T01:22:31.073Z,95274.91
2023-07-24T01:25:11.977Z,95312.53
2023-07-24T01:27:44.995Z,95308.84
2023-07-24T01:30:13.989Z,95302.88
2023-07-24T01:32:42.518Z,95317.09
2023-07-24T01:35:10.918Z,95302.16
2023-07-24T01:37:41.677Z,95261.31
2023-07-24T01:40:12.150Z,95292.94
2023-07-24T01:42:42.723Z,95298.28
2023-07-24T01:45:13.545Z,95296.59
2023-07-24T01:47:41.792Z,95298.78
2023-07-24T01:50:10.926Z,95308.56
2023-07-24T01:52:39.082Z,95335.81
2023-07-24T01:55:10.368Z,95343.81
2023-07-24T01:57:38.612Z,95325.06
2023-07-24T02:00:08.342Z,95315.56
2023-07-24T02:02:37.977Z,95282.88
2023-07-24T02:05:06.603Z,95316.81
2023-07-24T02:07:34.733Z,95311.31
2023-07-24T02:10:02.993Z,95318.59
2023-07-24T02:12:32.326Z,95315.34
2023-07-24T02:15:01.001Z,95305.84
2023-07-24T02:17:29.334Z,95308.31
2023-07-24T02:19:59.144Z,95279.63
2023-07-24T02:22:27.405Z,95308.56
2023-07-24T02:24:55.549Z,95314.09
2023-07-24T02:27:32.447Z,95253.97
2023-07-24T02:30:01.437Z,95313.06
2023-07-24T02:32:34.458Z,95310.28
2023-07-24T02:35:04.057Z,95277.81
2023-07-24T02:37:32.290Z,95281.56
2023-07-24T02:40:00.702Z,95305.63
2023-07-24T02:42:28.877Z,95306.38
2023-07-24T02:44:57.202Z,95305.63
2023-07-24T02:47:25.309Z,95296.34
2023-07-24T02:49:54.673Z,95308.59
2023-07-24T02:52:25.324Z,95314.09
2023-07-24T02:54:53.332Z,95311.81
2023-07-24T02:57:21.770Z,95303.06
2023-07-24T02:59:49.825Z,95302.53
2023-07-24T03:02:18.280Z,95304.28
2023-07-24T03:04:46.518Z,95300.00
2023-07-24T03:07:14.819Z,95306.28
2023-07-24T03:09:44.321Z,95201.78
2023-07-24T03:12:12.699Z,95287.47
2023-07-24T03:14:40.746Z,95292.72
2023-07-24T03:17:09.017Z,95298.75
2023-07-24T03:19:37.354Z,95296.50
2023-07-24T03:22:05.928Z,95298.00
2023-07-24T03:24:32.941Z,95297.50
2023-07-24T03:27:03.413Z,95304.03
2023-07-24T03:29:31.611Z,95303.03
2023-07-24T03:31:59.724Z,95300.25
2023-07-24T03:34:28.202Z,95296.06
2023-07-24T03:36:56.265Z,95246.47
2023-07-24T03:39:24.415Z,95301.09
2023-07-24T03:41:52.825Z,95295.09
2023-07-24T03:44:22.340Z,95312.00
2023-07-24T03:46:50.376Z,95289.38
2023-07-24T03:49:19.139Z,95309.88
2023-07-24T03:51:48.625Z,95306.09
2023-07-24T03:54:17.019Z,95301.13
2023-07-24T03:56:45.351Z,95331.09
2023-07-24T03:59:14.963Z,95319.88
2023-07-24T04:01:44.599Z,95328.09
2023-07-24T04:04:12.841Z,95321.13
2023-07-24T04:06:41.192Z,95319.59
2023-07-24T04:09:09.830Z,95323.09
2023-07-24T04:11:39.531Z,95328.56
2023-07-24T04:14:07.866Z,95282.63
2023-07-24T04:16:36.340Z,95282.63
2023-07-24T04:19:08.265Z,95328.59
2023-07-24T04:21:37.334Z,95334.09
2023-07-24T04:24:06.414Z,95284.19
2023-07-24T04:26:37.054Z,95327.09
2023-07-24T04:29:09.431Z,95330.31
2023-07-24T04:31:37.467Z,95324.06
2023-07-24T04:34:05.904Z,95330.50
2023-07-24T04:36:38.758Z,95327.47
2023-07-24T04:39:07.227Z,95335.88
2023-07-24T04:41:35.790Z,95327.56
2023-07-24T04:44:04.238Z,95331.47
2023-07-24T04:46:32.777Z,95284.38
2023-07-24T04:49:01.274Z,95306.31
2023-07-24T04:51:30.271Z,95336.69
2023-07-24T04:53:59.978Z,95331.19
2023-07-24T04:56:29.398Z,95342.44
2023-07-24T04:59:00.651Z,95330.75
2023-07-24T05:01:29.456Z,95333.72
2023-07-24T05:03:57.834Z,95322.13
2023-07-24T05:06:27.005Z,95327.97
2023-07-24T05:08:55.487Z,95326.34
2023-07-24T05:11:25.277Z,95337.56
2023-07-24T05:13:53.893Z,95331.47
2023-07-24T05:16:22.469Z,95339.22
2023-07-24T05:18:51.131Z,95321.75
2023-07-24T05:21:19.404Z,95322.44
2023-07-24T05:23:47.922Z,95331.09
2023-07-24T05:26:16.533Z,95338.38
2023-07-24T05:28:47.056Z,95294.97
2023-07-24T05:31:15.771Z,95329.03
2023-07-24T05:33:43.759Z,95327.09
2023-07-24T05:36:11.871Z,95328.25
2023-07-24T05:38:40.135Z,95325.81
2023-07-24T05:41:08.648Z,95326.16
2023-07-24T05:43:36.938Z,95334.66
2023-07-24T05:46:09.241Z,95321.19
2023-07-24T05:48:37.735Z,95304.00
2023-07-24T05:51:07.021Z,95313.22
2023-07-24T05:53:35.271Z,95317.66
2023-07-24T05:56:04.537Z,95307.22
2023-07-24T05:58:36.599Z,95307.19
2023-07-24T06:01:06.306Z,95313.59
2023-07-24T06:03:34.979Z,95298.56
2023-07-24T06:06:03.398Z,95298.56
2023-07-24T06:08:31.441Z,95301.34
2023-07-24T06:10:59.683Z,95293.41
2023-07-24T06:13:28.047Z,95293.81
2023-07-24T06:15:56.264Z,95289.78
2023-07-24T06:18:27.116Z,95301.25
2023-07-24T06:20:56.038Z,95263.38
2023-07-24T06:23:26.414Z,95298.97
2023-07-24T06:25:55.100Z,95286.34
2023-07-24T06:28:23.530Z,95299.75
2023-07-24T06:30:55.200Z,95297.88
2023-07-24T06:33:25.143Z,95288.63
2023-07-24T06:35:53.463Z,95257.28
2023-07-24T06:38:23.603Z,95299.06
2023-07-24T06:40:52.638Z,95297.56
2023-07-24T06:43:20.710Z,95311.66
2023-07-24T06:45:48.750Z,95293.84
2023-07-24T06:48:17.300Z,95291.63
2023-07-24T06:50:47.128Z,95297.91
2023-07-24T06:53:15.896Z,95299.31
2023-07-24T06:55:44.916Z,95298.84
2023-07-24T06:58:13.491Z,95282.59
2023-07-24T07:00:41.721Z,95291.66
2023-07-24T07:03:10.478Z,95298.31
2023-07-24T07:05:38.610Z,95293.88
2023-07-24T07:08:08.028Z,95303.13
2023-07-24T07:10:36.526Z,95304.34
2023-07-24T07:13:05.190Z,95302.81
2023-07-24T07:15:33.519Z,95293.53
2023-07-24T07:18:02.002Z,95307.78
2023-07-24T07:20:30.578Z,95299.56
2023-07-24T07:22:58.801Z,95285.81
2023-07-24T07:25:28.391Z,95297.13
2023-07-24T07:27:56.731Z,95296.84
2023-07-24T07:30:25.221Z,95300.59
2023-07-24T07:32:56.364Z,95300.78
2023-07-24T07:35:26.003Z,95293.06
2023-07-24T07:37:54.884Z,95287.78
2023-07-24T07:40:24.663Z,95289.53
2023-07-24T07:42:54.338Z,95283.63
2023-07-24T07:45:23.098Z,95271.91
2023-07-24T07:47:51.535Z,95253.44
2023-07-24T07:50:20.622Z,95284.41
2023-07-24T07:52:52.301Z,95264.84
2023-07-24T07:55:21.255Z,95282.44
2023-07-24T07:57:50.372Z,95282.78
2023-07-24T08:00:21.082Z,95276.16
2023-07-24T08:02:49.500Z,95279.66
2023-07-24T08:05:21.299Z,95285.25
2023-07-24T08:07:49.993Z,95270.34
2023-07-24T08:10:18.319Z,95280.25
2023-07-24T08:12:47.012Z,95261.56
2023-07-24T08:15:15.635Z,95284.34
2023-07-24T08:17:45.411Z,95251.16
2023-07-24T08:20:15.264Z,95267.91
2023-07-24T08:22:43.765Z,95272.84
2023-07-24T08:25:11.912Z,95272.13
2023-07-24T08:27:54.391Z,95265.28
2023-07-24T08:30:28.548Z,95257.16
2023-07-24T08:32:59.062Z,95254.09
2023-07-24T08:35:28.085Z,95249.59
2023-07-24T08:37:56.747Z,95247.16
2023-07-24T08:40:24.859Z,95248.63
2023-07-24T08:42:55.020Z,95251.75
2023-07-24T08:45:26.078Z,95242.44
2023-07-24T08:47:54.803Z,95238.50
2023-07-24T08:50:26.290Z,95235.03
2023-07-24T08:52:54.999Z,95237.88
2023-07-24T08:55:24.567Z,95234.28
2023-07-24T08:57:52.786Z,95238.03
2023-07-24T09:00:21.383Z,95235.59
2023-07-24T09:02:49.507Z,95237.06
2023-07-24T09:05:18.810Z,95233.78
2023-07-24T09:07:50.255Z,95232.66
2023-07-24T09:10:18.984Z,95239.13
2023-07-24T09:12:47.557Z,95241.75
2023-07-24T09:15:17.105Z,95221.88
2023-07-24T09:17:54.079Z,95230.19
2023-07-24T09:23:14.259Z,95201.94
2023-07-24T09:25:46.701Z,95222.31
2023-07-24T09:28:17.226Z,95211.59
2023-07-24T09:30:56.064Z,95214.47
2023-07-24T09:33:25.775Z,95192.06
2023-07-24T09:36:00.942Z,95197.56
2023-07-24T09:38:34.426Z,95171.16
2023-07-24T09:41:03.825Z,95184.84
2023-07-24T09:46:06.572Z,95189.63
2023-07-24T09:51:08.627Z,95183.88
2023-07-24T09:53:45.794Z,95168.19
2023-07-24T09:56:14.320Z,95170.69
2023-07-24T09:58:43.313Z,95163.50
2023-07-24T10:01:12.741Z,95133.16
2023-07-24T10:03:43.907Z,95163.41
2023-07-24T10:06:13.737Z,95160.88
2023-07-24T10:08:46.513Z,95155.94
2023-07-24T10:11:16.923Z,95159.09
2023-07-24T10:13:45.938Z,95154.84
2023-07-24T10:16:15.385Z,95155.31
2023-07-24T10:18:49.105Z,95145.22
2023-07-24T10:21:17.610Z,95142.03
2023-07-24T10:23:49.296Z,95140.72
2023-07-24T10:26:18.372Z,95136.34
2023-07-24T10:28:51.212Z,95137.06
2023-07-24T10:31:25.563Z,95127.47
2023-07-24T10:33:54.933Z,95140.28
2023-07-24T10:36:25.941Z,95131.88
2023-07-24T10:38:58.140Z,95128.50
2023-07-24T10:41:37.876Z,95133.50
2023-07-24T10:44:07.356Z,95120.22
2023-07-24T10:46:39.401Z,95120.56
2023-07-24T10:49:10.228Z,95122.03
2023-07-24T10:51:40.091Z,95114.81
2023-07-24T10:54:10.403Z,95115.38
2023-07-24T10:56:40.027Z,95096.66
2023-07-24T10:59:08.494Z,95109.38
2023-07-24T11:01:37.408Z,95109.78
2023-07-24T11:04:07.353Z,95103.63
2023-07-24T11:09:41.610Z,95100.97
2023-07-24T11:12:14.823Z,95086.13
2023-07-24T11:14:55.381Z,95081.47
2023-07-24T11:17:36.316Z,95072.06
2023-07-24T11:20:10.053Z,95074.19
2023-07-24T11:22:39.801Z,95076.56
2023-07-24T11:25:10.572Z,95069.59
2023-07-24T11:27:45.264Z,95067.53
2023-07-24T11:30:14.971Z,95065.06
2023-07-24T11:32:44.871Z,95064.94
2023-07-24T11:35:14.931Z,95068.50
2023-07-24T11:37:43.365Z,95061.25
2023-07-24T11:40:16.367Z,95062.69
2023-07-24T11:42:46.693Z,95048.69
2023-07-24T11:45:15.483Z,95046.38
2023-07-24T11:47:46.981Z,95036.72
2023-07-24T11:50:16.023Z,95033.81
2023-07-24T11:52:47.155Z,95038.34
2023-07-24T11:55:19.168Z,95045.63
2023-07-24T11:57:58.865Z,95045.97
2023-07-24T12:00:27.893Z,95044.31
2023-07-24T12:03:01.823Z,95026.44
2023-07-24T12:05:31.929Z,95035.69
2023-07-24T12:08:04.551Z,95028.38
2023-07-24T12:10:40.506Z,95027.31
2023-07-24T12:13:09.916Z,95035.81
2023-07-24T12:15:40.197Z,95012.88
2023-07-24T12:18:09.536Z,95035.88
2023-07-24T12:20:38.218Z,95031.22
2023-07-24T12:23:07.305Z,95032.91
2023-07-24T12:25:38.233Z,95032.38
2023-07-24T12:28:07.325Z,95031.88
2023-07-24T12:30:35.634Z,95028.09
2023-07-24T12:33:04.290Z,95017.44
2023-07-24T12:35:33.483Z,95016.25
2023-07-24T12:38:02.101Z,95001.03
2023-07-24T12:40:30.449Z,95003.16
2023-07-24T12:43:00.579Z,95010.28
2023-07-24T12:45:30.222Z,95002.41
2023-07-24T12:47:58.728Z,95003.25
2023-07-24T12:50:27.258Z,95004.31
2023-07-24T12:52:55.588Z,94998.34
2023-07-24T12:55:24.620Z,95002.28
2023-07-24T12:57:53.419Z,94999.63
2023-07-24T13:00:23.514Z,94993.16
2023-07-24T13:02:51.850Z,94988.41
2023-07-24T13:05:20.336Z,94994.91
2023-07-24T13:07:48.973Z,94974.53
2023-07-24T13:10:17.285Z,94999.16
2023-07-24T13:12:47.899Z,94978.44
2023-07-24T13:15:17.684Z,94990.38
2023-07-24T13:17:47.775Z,94978.72
2023-07-24T13:20:16.699Z,94959.09
2023-07-24T13:22:48.109Z,94969.44
2023-07-24T13:25:16.763Z,94975.94
2023-07-24T13:27:45.125Z,94964.16
2023-07-24T13:30:14.401Z,94953.25
2023-07-24T13:32:42.918Z,94970.59
2023-07-24T13:35:13.160Z,94968.28
2023-07-24T13:37:41.627Z,94963.38
2023-07-24T13:40:11.592Z,94861.44
2023-07-24T13:42:40.002Z,94937.03
2023-07-24T13:45:09.912Z,94956.78
2023-07-24T13:47:38.479Z,94948.22
2023-07-24T13:50:09.271Z,94921.72
2023-07-24T13:52:39.113Z,94946.50
2023-07-24T13:55:08.620Z,94848.53
2023-07-24T13:57:37.083Z,94943.16
2023-07-24T14:00:06.139Z,94940.19
2023-07-24T14:02:34.807Z,94934.91
2023-07-24T14:05:03.511Z,94924.72
2023-07-24T14:07:31.721Z,94930.16
2023-07-24T14:10:01.152Z,94906.69
2023-07-24T14:12:29.228Z,94924.53
2023-07-24T14:14:57.470Z,94933.75
2023-07-24T14:17:25.720Z,94926.25
2023-07-24T14:19:53.927Z,94914.03
2023-07-24T14:22:22.157Z,94920.28
2023-07-24T14:24:50.493Z,94931.88
2023-07-24T14:27:20.196Z,94920.94
2023-07-24T14:29:48.605Z,94926.69
2023-07-24T14:32:17.331Z,94922.97
2023-07-24T14:34:46.038Z,94928.53
2023-07-24T14:37:14.776Z,94924.38
2023-07-24T14:39:43.267Z,94918.03
2023-07-24T14:42:11.594Z,94912.16
2023-07-24T14:44:41.234Z,94924.47
2023-07-24T14:47:09.750Z,94915.06
2023-07-24T14:49:38.143Z,94923.59
2023-07-24T14:52:06.904Z,94925.94
2023-07-24T14:54:38.608Z,94936.13
2023-07-24T14:57:19.083Z,94937.72
2023-07-24T14:59:54.799Z,94924.78
2023-07-24T15:02:22.891Z,94918.97
2023-07-24T15:04:51.505Z,94920.38
2023-07-24T15:07:20.079Z,94917.06
2023-07-24T15:09:48.550Z,94918.25
2023-07-24T15:12:16.789Z,94910.31
2023-07-24T15:14:45.072Z,94900.88
2023-07-24T15:17:16.018Z,94910.72
2023-07-24T15:19:44.184Z,94906.25
2023-07-24T15:22:12.746Z,94904.28
2023-07-24T15:24:42.276Z,94908.47
2023-07-24T15:27:12.218Z,94899.47
2023-07-24T15:29:40.788Z,94858.72
2023-07-24T15:32:10.131Z,94896.47
2023-07-24T15:34:40.287Z,94901.09
2023-07-24T15:37:08.685Z,94899.84
2023-07-24T15:39:36.998Z,94889.50
2023-07-24T15:42:05.705Z,94902.75
2023-07-24T15:44:34.085Z,94904.16
2023-07-24T15:47:02.450Z,94883.78
2023-07-24T15:49:31.854Z,94892.34
2023-07-24T15:52:01.513Z,94892.00
2023-07-24T15:54:29.913Z,94896.50
2023-07-24T15:56:58.334Z,94909.06
2023-07-24T15:59:26.671Z,94901.69
2023-07-24T16:01:54.801Z,94895.03
2023-07-24T16:04:23.502Z,94875.91
2023-07-24T16:06:51.685Z,94897.69
2023-07-24T16:09:23.086Z,94897.94
2023-07-24T16:11:51.161Z,94899.28
2023-07-24T16:14:19.581Z,94901.09
2023-07-24T16:16:47.827Z,94901.34
2023-07-24T16:19:17.443Z,94880.78
2023-07-24T16:21:47.730Z,94905.50
2023-07-24T16:24:18.419Z,94897.13
2023-07-24T16:26:49.673Z,94905.41
2023-07-24T16:29:18.332Z,94898.59
2023-07-24T16:31:46.359Z,94903.03
2023-07-24T16:34:15.457Z,94909.81
2023-07-24T16:36:43.851Z,94910.09
2023-07-24T16:39:12.246Z,94913.00
2023-07-24T16:41:41.486Z,94905.53
2023-07-24T16:44:15.321Z,94912.16
2023-07-24T16:46:44.014Z,94905.00
2023-07-24T16:49:12.431Z,94912.06
2023-07-24T16:51:40.919Z,94911.13
2023-07-24T16:54:10.421Z,94908.34
2023-07-24T16:56:38.655Z,94900.19
2023-07-24T16:59:06.691Z,94918.19
2023-07-24T17:01:36.927Z,94908.06
2023-07-24T17:04:05.382Z,94900.91
2023-07-24T17:06:33.604Z,94890.97
2023-07-24T17:09:01.659Z,94906.59
2023-07-24T17:11:30.084Z,94917.50
2023-07-24T17:13:59.518Z,94909.97
2023-07-24T17:16:27.839Z,94909.78
2023-07-24T17:18:57.469Z,94900.72
2023-07-24T17:21:25.786Z,94857.13
2023-07-24T17:23:53.993Z,94869.66
2023-07-24T17:26:22.305Z,94903.81
2023-07-24T17:28:50.606Z,94911.34
2023-07-24T17:31:19.087Z,94912.53
2023-07-24T17:33:47.184Z,94908.13
2023-07-24T17:36:16.815Z,94910.38
2023-07-24T17:38:45.088Z,94916.25
2023-07-24T17:41:14.535Z,94918.31
2023-07-24T17:43:42.551Z,94917.53
2023-07-24T17:46:11.069Z,94914.03
2023-07-24T17:48:39.065Z,94906.84
2023-07-24T17:51:07.469Z,94907.13
2023-07-24T17:53:37.016Z,94916.41
2023-07-24T17:56:05.354Z,94907.41
2023-07-24T17:58:33.450Z,94911.09
2023-07-24T18:01:01.938Z,94907.41
2023-07-24T18:03:30.139Z,94910.19
2023-07-24T18:05:59.497Z,94910.66
2023-07-24T18:08:28.897Z,94906.22
2023-07-24T18:10:59.795Z,94903.13
2023-07-24T18:13:27.919Z,94901.31
2023-07-24T18:15:55.965Z,94797.97
2023-07-24T18:18:24.178Z,94900.13
2023-07-24T18:20:52.687Z,94907.75
2023-07-24T18:23:20.849Z,94907.88
2023-07-24T18:25:49.159Z,94904.28
2023-07-24T18:28:18.504Z,94892.94
2023-07-24T18:30:46.534Z,94914.84
2023-07-24T18:33:16.064Z,94912.63
2023-07-24T18:35:45.248Z,94906.50
2023-07-24T18:38:13.555Z,94910.34
2023-07-24T18:40:41.732Z,94906.88
2023-07-24T18:43:10.002Z,94861.91
2023-07-24T18:45:39.528Z,94905.16
2023-07-24T18:48:09.572Z,94910.63
2023-07-24T18:50:38.126Z,94878.53
2023-07-24T18:53:06.818Z,94918.44
2023-07-24T18:55:36.405Z,94903.69
2023-07-24T18:58:04.392Z,94918.28
2023-07-24T19:00:34.338Z,94906.50
2023-07-24T19:03:04.813Z,94915.50
2023-07-24T19:05:35.273Z,94914.66
2023-07-24T19:08:03.657Z,94904.16
2023-07-24T19:10:32.154Z,94910.09
2023-07-24T19:13:00.650Z,94907.25
2023-07-24T19:15:28.729Z,94911.81
2023-07-24T19:17:57.274Z,94899.38
2023-07-24T19:20:28.454Z,94890.34
2023-07-24T19:22:57.971Z,94890.03
2023-07-24T19:25:26.056Z,94913.09
2023-07-24T19:27:54.409Z,94915.00
2023-07-24T19:30:22.903Z,94924.69
2023-07-24T19:32:51.329Z,94924.28
2023-07-24T19:35:21.174Z,94925.41
2023-07-24T19:37:50.642Z,94920.25
2023-07-24T19:40:19.024Z,94922.13
2023-07-24T19:42:47.771Z,94933.06
2023-07-24T19:45:16.453Z,94924.09
2023-07-24T19:47:44.675Z,94917.47
2023-07-24T19:50:12.800Z,94918.59
2023-07-24T19:52:41.217Z,94923.63
2023-07-24T19:55:12.530Z,94921.28
2023-07-24T19:57:40.700Z,94923.16
2023-07-24T20:00:10.047Z,94922.03
2023-07-24T20:02:38.433Z,94879.09
2023-07-24T20:05:07.682Z,94917.88
2023-07-24T20:07:36.310Z,94913.88
2023-07-24T20:10:04.884Z,94912.09
2023-07-24T20:12:34.809Z,94919.75
2023-07-24T20:15:02.817Z,94916.97
2023-07-24T20:17:32.473Z,94914.41
2023-07-24T20:20:02.434Z,94913.53
2023-07-24T20:22:30.716Z,94907.97
2023-07-24T20:24:58.642Z,94910.75
2023-07-24T20:27:27.297Z,94916.34
2023-07-24T20:29:56.901Z,94916.72
2023-07-24T20:32:25.378Z,94898.97
2023-07-24T20:34:53.678Z,94907.66
2023-07-24T20:37:21.789Z,94924.16
2023-07-24T20:39:49.851Z,94878.59
2023-07-24T20:42:17.919Z,94915.66
2023-07-24T20:44:51.794Z,94916.34
2023-07-24T20:47:21.929Z,94912.28
2023-07-24T20:49:50.404Z,94914.13
2023-07-24T20:52:19.384Z,94911.91
2023-07-24T20:54:48.856Z,94912.28
2023-07-24T20:57:17.148Z,94899.69
2023-07-24T20:59:47.299Z,94885.09
2023-07-24T21:02:15.977Z,94882.66
2023-07-24T21:04:45.857Z,94883.59
2023-07-24T21:07:15.062Z,94885.63
2023-07-24T21:09:43.159Z,94890.41
2023-07-24T21:12:11.225Z,94895.03
2023-07-24T21:14:39.669Z,94906.06
2023-07-24T21:17:08.013Z,94904.56
2023-07-24T21:19:36.107Z,94910.34
2023-07-24T21:22:06.697Z,94859.28
2023-07-24T21:24:35.112Z,94897.31
2023-07-24T21:27:03.558Z,94896.84
2023-07-24T21:29:31.953Z,94879.28
2023-07-24T21:32:00.071Z,94872.28
2023-07-24T21:34:28.200Z,94850.38
2023-07-24T21:36:56.613Z,94863.44
2023-07-24T21:39:26.252Z,94859.81
2023-07-24T21:41:54.255Z,94853.50
2023-07-24T21:44:22.173Z,94825.84
2023-07-24T21:46:50.521Z,94850.44
2023-07-24T21:49:18.637Z,94836.75
2023-07-24T21:51:47.407Z,94857.47
2023-07-24T21:54:15.861Z,94865.06
2023-07-24T21:56:45.300Z,94863.13
2023-07-24T21:59:13.441Z,94861.03
2023-07-24T22:01:41.568Z,94861.88
2023-07-24T22:04:09.568Z,94862.63
2023-07-24T22:06:37.522Z,94848.84
2023-07-24T22:09:05.972Z,94853.00
2023-07-24T22:11:36.935Z,94860.91
2023-07-24T22:14:06.673Z,94862.97
2023-07-24T22:16:36.541Z,94860.94
2023-07-24T22:19:04.651Z,94851.94
2023-07-24T22:21:34.277Z,94857.47
2023-07-24T22:24:03.535Z,94865.53
2023-07-24T22:26:32.515Z,94859.88
2023-07-24T22:29:00.829Z,94811.16
2023-07-24T22:31:30.425Z,94866.72
2023-07-24T22:33:58.977Z,94863.56
2023-07-24T22:36:27.093Z,94864.84
2023-07-24T22:38:56.043Z,94856.34
2023-07-24T22:41:24.562Z,94867.75
2023-07-24T22:43:52.933Z,94870.19
2023-07-24T22:46:21.387Z,94865.69
2023-07-24T22:48:51.456Z,94861.16
2023-07-24T22:51:19.937Z,94854.06
2023-07-24T22:53:49.704Z,94853.25
2023-07-24T22:56:17.832Z,94852.75
2023-07-24T22:59:21.014Z,94846.50
2023-07-24T23:01:50.333Z,94846.09
2023-07-24T23:04:23.188Z,94840.59
2023-07-24T23:06:54.354Z,94838.69
2023-07-24T23:09:22.429Z,94825.34
2023-07-24T23:11:50.638Z,94811.94
2023-07-24T23:14:18.750Z,94815.66
2023-07-24T23:16:48.358Z,94817.72
2023-07-24T23:19:16.787Z,94839.88
2023-07-24T23:21:46.409Z,94840.75
2023-07-24T23:24:14.407Z,94797.06
2023-07-24T23:26:42.467Z,94830.09
2023-07-24T23:29:11.286Z,94807.69
2023-07-24T23:31:39.351Z,94820.41
2023-07-24T23:34:08.214Z,94835.06
2023-07-24T23:36:36.513Z,94804.38
2023-07-24T23:39:07.003Z,94831.28
2023-07-24T23:41:35.178Z,94832.75
2023-07-24T23:44:05.337Z,94831.75
2023-07-24T23:46:34.750Z,94829.78
2023-07-24T23:49:03.037Z,94819.38
2023-07-24T23:51:32.170Z,94829.44
2023-07-24T23:54:00.362Z,94829.94
2023-07-24T23:56:29.754Z,94823.31
2023-07-24T23:58:57.947Z,94834.03
